createdAt,value
2019-04-04T00:11:57.909Z,11.63
2019-04-04T00:14:56.653Z,11.17
2019-04-04T00:17:31.200Z,12.20
2019-04-04T00:20:17.511Z,12.17
2019-04-04T00:22:51.827Z,12.33
2019-04-04T00:25:26.142Z,11.70
2019-04-04T00:28:00.116Z,11.57
2019-04-04T00:30:34.600Z,10.67
2019-04-04T00:33:20.513Z,11.47
2019-04-04T00:36:07.154Z,12.03
2019-04-04T00:38:40.855Z,12.47
2019-04-04T00:41:28.798Z,12.23
2019-04-04T00:44:03.061Z,11.87
2019-04-04T00:46:37.351Z,12.83
2019-04-04T00:49:11.638Z,12.30
2019-04-04T00:51:45.576Z,13.20
2019-04-04T00:54:37.048Z,13.03
2019-04-04T00:57:10.463Z,13.77
2019-04-04T00:59:56.689Z,13.93
2019-04-04T01:02:30.954Z,12.87
2019-04-04T01:05:04.944Z,13.40
2019-04-04T01:07:50.819Z,14.30
2019-04-04T01:20:59.468Z,13.20
2019-04-04T01:23:33.556Z,13.53
2019-04-04T01:36:49.340Z,13.13
2019-04-04T01:39:23.417Z,15.87
2019-04-04T01:41:57.775Z,14.47
2019-04-04T01:44:31.002Z,14.63
2019-04-04T01:47:07.109Z,15.20
2019-04-04T01:49:41.467Z,15.40
2019-04-04T01:52:15.430Z,15.27
2019-04-04T01:55:18.946Z,14.70
2019-04-04T01:58:07.915Z,15.10
2019-04-04T02:00:44.013Z,15.60
2019-04-04T02:03:18.879Z,16.53
2019-04-04T02:05:52.445Z,16.93
2019-04-04T02:08:25.606Z,16.93
2019-04-04T02:10:59.960Z,17.60
2019-04-04T02:13:45.291Z,17.83
2019-04-04T02:19:38.181Z,17.50
2019-04-04T02:22:32.951Z,17.67
2019-04-04T02:25:27.529Z,18.00
2019-04-04T02:44:05.557Z,18.83
2019-04-04T02:46:44.266Z,18.80
2019-04-04T03:02:49.243Z,20.63
2019-04-04T03:05:23.446Z,21.00
2019-04-04T03:07:57.331Z,20.90
2019-04-04T03:21:23.468Z,19.30
2019-04-04T03:24:05.933Z,18.73
2019-04-04T03:26:55.239Z,18.67
2019-04-04T03:29:46.748Z,18.03
2019-04-04T03:32:20.794Z,19.03
2019-04-04T03:34:54.689Z,20.07
2019-04-04T03:58:44.741Z,18.07
2019-04-04T04:01:19.327Z,20.00
2019-04-04T04:27:47.110Z,20.67
2019-04-04T04:30:20.353Z,19.63
2019-04-04T04:32:57.124Z,18.40
2019-04-04T04:35:29.674Z,19.57
2019-04-04T04:38:14.784Z,19.10
2019-04-04T04:51:37.383Z,18.33
2019-04-04T05:12:53.195Z,18.93
2019-04-04T05:15:43.940Z,19.43
2019-04-04T05:18:32.513Z,20.13
2019-04-04T05:45:44.853Z,25.97
2019-04-04T06:00:15.225Z,29.63
2019-04-04T06:02:48.574Z,30.27
2019-04-04T06:05:22.903Z,27.70
2019-04-04T06:27:52.449Z,26.97
2019-04-04T06:34:49.062Z,24.90
2019-04-04T06:37:23.290Z,27.00
2019-04-04T06:39:58.992Z,27.50
2019-04-04T06:42:36.046Z,28.73
2019-04-04T06:45:09.480Z,28.20
2019-04-04T06:47:57.626Z,27.97
2019-04-04T06:50:31.443Z,27.13
2019-04-04T06:53:05.001Z,26.47
2019-04-04T06:55:40.229Z,27.87
2019-04-04T06:58:16.887Z,27.97
2019-04-04T07:01:39.223Z,27.27
2019-04-04T07:04:25.216Z,25.60
2019-04-04T07:07:13.149Z,25.97
2019-04-04T07:09:48.224Z,26.63
2019-04-04T07:12:40.408Z,26.80
2019-04-04T07:15:31.590Z,26.50
2019-04-04T07:18:05.585Z,26.20
2019-04-04T07:20:39.359Z,26.13
2019-04-04T07:23:14.426Z,26.63
2019-04-04T07:25:48.900Z,26.50
2019-04-04T07:28:40.954Z,27.03
2019-04-04T07:31:16.095Z,25.20
2019-04-04T07:33:50.450Z,26.67
2019-04-04T07:36:24.983Z,25.87
2019-04-04T07:39:00.345Z,26.47
2019-04-04T07:41:34.065Z,26.17
2019-04-04T07:44:12.324Z,25.90
2019-04-04T07:46:46.484Z,25.90
2019-04-04T07:49:21.129Z,24.80
2019-04-04T07:52:07.525Z,24.47
2019-04-04T07:54:41.645Z,24.10
2019-04-04T07:57:17.309Z,23.37
2019-04-04T07:59:55.849Z,24.57
2019-04-04T08:02:42.484Z,23.93
2019-04-04T08:05:16.010Z,24.13
2019-04-04T08:07:50.048Z,24.53
2019-04-04T08:10:24.865Z,24.23
2019-04-04T08:12:59.000Z,23.53
2019-04-04T08:15:35.931Z,23.60
2019-04-04T08:18:08.065Z,23.63
2019-04-04T08:20:41.323Z,22.73
2019-04-04T08:23:17.133Z,22.50
2019-04-04T11:19:43.346Z,18.57
2019-04-04T11:22:16.228Z,20.17
2019-04-04T11:24:50.351Z,19.23
2019-04-04T12:38:10.196Z,17.83
2019-04-04T12:40:44.339Z,16.73
2019-04-04T12:43:19.441Z,17.37
2019-04-04T12:45:53.070Z,18.17
2019-04-04T12:48:27.098Z,18.90
2019-04-04T12:51:13.938Z,18.10
2019-04-04T12:53:47.523Z,17.90
2019-04-04T12:56:22.040Z,18.07
2019-04-04T13:30:40.490Z,15.67
2019-04-04T13:33:14.880Z,15.43
2019-04-04T13:46:29.514Z,14.00
2019-04-04T13:49:21.715Z,14.80
2019-04-04T13:51:56.041Z,13.73
2019-04-04T13:54:30.241Z,14.30
2019-04-04T14:07:45.098Z,16.33
2019-04-04T14:10:19.034Z,16.37
2019-04-04T14:12:53.239Z,16.47
2019-04-04T14:15:27.541Z,16.13
2019-04-04T14:18:07.613Z,16.77
2019-04-04T14:31:18.039Z,16.00
2019-04-04T14:44:28.096Z,19.87
2019-04-04T14:47:02.605Z,21.07
2019-04-04T14:49:38.726Z,19.90
2019-04-04T14:52:30.817Z,20.80
2019-04-04T14:55:23.042Z,19.57
2019-04-04T14:57:57.032Z,19.23
2019-04-04T15:00:30.527Z,18.80
2019-04-04T15:03:04.877Z,19.30
2019-04-04T15:05:38.856Z,19.67
2019-04-04T15:08:13.034Z,19.20
2019-04-04T15:10:47.403Z,19.43
2019-04-04T15:13:41.571Z,19.80
2019-04-04T15:16:27.329Z,19.97
2019-04-04T15:19:01.966Z,20.27
2019-04-04T15:21:35.791Z,20.67
2019-04-04T15:24:09.996Z,21.00
2019-04-04T15:42:55.200Z,21.93
2019-04-04T16:56:11.366Z,18.53
2019-04-04T17:09:25.613Z,16.10
2019-04-04T17:12:00.111Z,16.00
2019-04-04T17:14:33.941Z,16.63
2019-04-04T17:17:15.057Z,17.00
2019-04-04T17:19:54.057Z,15.73
2019-04-04T17:22:29.357Z,16.30
2019-04-04T17:25:03.718Z,16.90
2019-04-04T17:27:49.303Z,15.30
2019-04-04T17:30:23.186Z,16.67
2019-04-04T17:32:57.109Z,16.43
2019-04-04T17:35:31.749Z,18.07
2019-04-04T17:38:15.022Z,15.50
2019-04-04T17:40:49.269Z,17.70
2019-04-04T17:43:24.299Z,16.73
2019-04-04T17:45:58.829Z,16.50
2019-04-04T17:48:43.823Z,16.33
2019-04-04T17:51:18.113Z,15.17
2019-04-04T17:54:14.424Z,16.97
2019-04-04T17:56:50.389Z,17.33
2019-04-04T17:59:24.455Z,17.67
2019-04-04T18:02:15.546Z,17.50
2019-04-04T18:04:49.588Z,17.50
2019-04-04T18:07:49.185Z,18.43
2019-04-04T18:10:28.787Z,20.30
2019-04-04T18:13:02.403Z,19.73
2019-04-04T18:15:38.006Z,17.63
2019-04-04T18:18:12.138Z,17.90
2019-04-04T18:20:45.853Z,19.40
2019-04-04T18:23:37.635Z,19.50
2019-04-04T18:26:11.292Z,20.27
2019-04-04T18:29:03.057Z,19.20
2019-04-04T18:31:37.242Z,19.60
2019-04-04T18:34:11.055Z,19.37
2019-04-04T18:36:56.583Z,16.40
2019-04-04T18:39:29.858Z,18.87
2019-04-04T18:42:21.596Z,18.90
2019-04-04T18:45:08.754Z,20.63
2019-04-04T18:47:53.555Z,18.50
2019-04-04T18:50:27.589Z,18.73
2019-04-04T19:03:39.658Z,18.47
2019-04-04T19:17:28.418Z,18.60
2019-04-04T19:20:03.641Z,20.73
2019-04-04T19:23:11.517Z,23.10
2019-04-04T19:29:37.328Z,20.63
2019-04-04T19:32:11.280Z,20.77
2019-04-04T19:34:46.016Z,20.17
2019-04-04T19:38:00.115Z,21.60
2019-04-04T19:40:28.866Z,22.17
2019-04-04T19:43:03.248Z,22.20
2019-04-04T19:45:37.992Z,25.57
2019-04-04T19:48:32.518Z,22.73
2019-04-04T19:51:08.074Z,22.23
2019-04-04T19:53:42.401Z,23.57
2019-04-04T19:56:18.224Z,24.13
2019-04-04T19:58:52.516Z,24.73
2019-04-04T20:01:49.199Z,25.27
2019-04-04T20:04:35.224Z,25.50
2019-04-04T20:07:19.264Z,26.87
2019-04-04T20:09:59.073Z,25.10
2019-04-04T20:12:44.375Z,26.47
2019-04-04T20:15:23.252Z,28.83
2019-04-04T20:18:05.180Z,28.17
2019-04-04T20:20:56.958Z,28.80
2019-04-04T20:23:33.253Z,25.63
2019-04-04T20:26:27.203Z,26.10
2019-04-04T20:29:03.550Z,28.37
2019-04-04T20:31:56.404Z,27.40
2019-04-04T20:34:33.473Z,27.17
2019-04-04T20:37:13.159Z,26.63
2019-04-04T20:40:18.543Z,26.17
2019-04-04T20:42:55.535Z,26.80
2019-04-04T20:45:47.830Z,26.33
2019-04-04T20:48:24.762Z,24.20
2019-04-04T20:51:52.553Z,25.47
2019-04-04T20:54:35.102Z,25.47
2019-04-04T20:57:13.458Z,26.77
2019-04-04T20:59:53.847Z,24.77
2019-04-04T21:02:29.382Z,25.40
2019-04-04T21:05:04.719Z,25.73
2019-04-04T21:07:43.277Z,25.43
2019-04-04T21:10:36.495Z,24.33
2019-04-04T21:13:33.944Z,23.00
2019-04-04T21:22:27.467Z,21.83
2019-04-04T21:24:55.126Z,20.70
2019-04-04T21:27:30.623Z,21.53
2019-04-04T21:30:06.178Z,21.30
2019-04-04T21:32:42.044Z,20.50
2019-04-04T21:35:24.787Z,19.63
2019-04-04T21:38:49.434Z,18.73
2019-04-04T21:41:25.845Z,18.83
2019-04-04T21:44:19.017Z,17.63
2019-04-04T21:46:53.001Z,17.73
2019-04-04T21:49:54.450Z,18.93
2019-04-04T21:52:59.632Z,17.67
2019-04-04T21:56:07.731Z,18.03
2019-04-04T21:58:50.555Z,16.47
2019-04-04T22:01:33.944Z,17.20
2019-04-04T22:21:52.278Z,15.13
2019-04-04T22:24:28.528Z,14.60
2019-04-04T22:27:03.877Z,14.63
2019-04-04T22:29:39.362Z,14.77
2019-04-04T22:32:13.532Z,14.70
2019-04-04T22:35:24.149Z,13.67
2019-04-04T22:37:59.234Z,14.53
2019-04-04T22:40:34.935Z,14.40
2019-04-04T22:43:30.452Z,13.53
2019-04-04T22:50:01.640Z,13.97
2019-04-04T22:52:41.144Z,14.07
2019-04-04T22:55:17.174Z,13.50
2019-04-04T22:57:51.645Z,13.97
2019-04-04T23:00:27.202Z,13.73
2019-04-04T23:03:04.009Z,14.03
2019-04-04T23:05:39.642Z,13.77
2019-04-04T23:08:15.420Z,13.70
2019-04-04T23:12:04.137Z,13.10
2019-04-04T23:14:48.257Z,12.90
2019-04-04T23:17:25.034Z,14.67
2019-04-04T23:19:59.980Z,14.57
2019-04-04T23:22:37.778Z,14.30
2019-04-04T23:25:18.526Z,13.33
2019-04-04T23:27:56.527Z,13.33
2019-04-04T23:30:31.726Z,13.07
2019-04-04T23:33:22.622Z,13.60
2019-04-04T23:37:10.967Z,14.27
2019-04-04T23:40:00.642Z,15.73
2019-04-04T23:42:45.681Z,14.33
2019-04-04T23:45:23.833Z,14.47
2019-04-04T23:47:59.957Z,13.93
2019-04-04T23:50:34.217Z,14.13
2019-04-04T23:53:16.864Z,14.27
2019-04-04T23:55:53.538Z,14.77
2019-04-04T23:58:32.866Z,15.30
